createdAt,value
2023-01-11T00:00:39.301Z,98285.84
2023-01-11T00:03:07.054Z,98278.00
2023-01-11T00:05:44.216Z,98266.75
2023-01-11T00:08:11.804Z,98265.84
2023-01-11T00:10:38.739Z,98244.13
2023-01-11T00:13:06.126Z,98256.25
2023-01-11T00:15:33.175Z,98245.88
2023-01-11T00:17:59.720Z,98242.38
2023-01-11T00:20:26.326Z,98239.78
2023-01-11T00:22:53.144Z,98249.31
2023-01-11T00:25:20.028Z,98226.78
2023-01-11T00:27:49.535Z,98238.94
2023-01-11T00:30:25.372Z,98251.94
2023-01-11T00:32:59.613Z,98237.19
2023-01-11T00:35:27.226Z,98233.72
2023-01-11T00:37:54.612Z,98236.31
2023-01-11T00:40:21.807Z,98226.78
2023-01-11T00:43:06.958Z,98238.06
2023-01-11T00:45:52.388Z,98224.19
2023-01-11T00:48:18.910Z,98209.41
2023-01-11T00:50:45.420Z,98217.25
2023-01-11T00:53:12.120Z,98214.59
2023-01-11T00:55:38.813Z,98208.50
2023-01-11T00:58:05.430Z,98209.44
2023-01-11T01:00:34.516Z,98206.81
2023-01-11T01:03:01.182Z,98207.69
2023-01-11T01:05:28.154Z,98209.41
2023-01-11T01:07:54.843Z,98206.81
2023-01-11T01:10:21.883Z,98207.69
2023-01-11T01:13:07.252Z,98193.81
2023-01-11T01:15:34.026Z,98194.66
2023-01-11T01:18:00.633Z,98188.56
2023-01-11T01:20:27.405Z,98189.50
2023-01-11T01:22:54.063Z,98182.53
2023-01-11T01:25:20.862Z,98192.91
2023-01-11T01:27:47.447Z,98172.94
2023-01-11T01:30:15.804Z,98174.69
2023-01-11T01:32:42.614Z,98174.66
2023-01-11T01:35:09.436Z,98157.31
2023-01-11T01:37:35.982Z,98158.19
2023-01-11T01:40:02.985Z,98149.50
2023-01-11T01:42:29.664Z,98145.19
2023-01-11T01:45:30.679Z,98136.47
2023-01-11T01:48:02.204Z,98132.13
2023-01-11T01:50:34.378Z,98124.28
2023-01-11T01:53:06.290Z,98117.38
2023-01-11T01:55:37.179Z,98126.06
2023-01-11T01:58:10.553Z,98126.94
2023-01-11T02:00:42.699Z,98114.78
2023-01-11T02:03:16.021Z,98111.28
2023-01-11T02:05:42.770Z,98126.06
2023-01-11T02:08:19.628Z,98122.59
2023-01-11T02:10:46.482Z,98123.44
2023-01-11T02:13:14.537Z,98115.63
2023-01-11T02:15:41.136Z,98133.84
2023-01-11T02:18:12.850Z,98125.97
2023-01-11T02:21:05.058Z,98127.72
2023-01-11T02:23:52.377Z,98116.44
2023-01-11T02:26:34.155Z,98150.22
2023-01-11T02:29:34.322Z,98153.75
2023-01-11T02:32:38.626Z,98138.13
2023-01-11T02:35:15.945Z,98149.38
2023-01-11T02:37:48.155Z,98151.09
2023-01-11T02:40:42.387Z,98143.28
2023-01-11T02:43:36.682Z,98148.50
2023-01-11T02:46:16.734Z,98145.81
2023-01-11T02:48:56.297Z,98155.38
2023-01-11T02:51:33.337Z,98151.88
2023-01-11T02:54:07.495Z,98151.91
2023-01-11T02:56:39.299Z,98149.25
2023-01-11T02:59:11.333Z,98144.91
2023-01-11T03:01:51.017Z,98155.38
2023-01-11T03:04:30.884Z,98153.63
2023-01-11T03:07:05.064Z,98144.91
2023-01-11T03:09:47.780Z,98144.91
2023-01-11T03:13:04.333Z,98125.75
2023-01-11T03:15:53.849Z,98125.75
2023-01-11T03:18:46.428Z,98143.19
2023-01-11T03:21:18.645Z,98141.41
2023-01-11T03:24:00.992Z,98129.22
2023-01-11T03:26:49.710Z,98122.28
2023-01-11T03:29:39.966Z,98122.19
2023-01-11T03:32:22.312Z,98112.56
2023-01-11T03:35:22.716Z,98105.56
2023-01-11T03:38:04.562Z,98101.25
2023-01-11T03:40:35.075Z,98107.28
2023-01-11T03:43:11.797Z,98091.59
2023-01-11T03:45:43.924Z,98098.59
2023-01-11T03:48:17.869Z,98103.88
2023-01-11T03:50:48.832Z,98104.69
2023-01-11T03:53:18.419Z,98096.00
2023-01-11T03:55:47.864Z,98102.16
2023-01-11T03:58:14.648Z,98092.59
2023-01-11T04:00:41.532Z,98092.50
2023-01-11T04:03:09.808Z,98087.38
2023-01-11T04:05:37.447Z,98097.72
2023-01-11T04:08:04.087Z,98089.88
2023-01-11T04:10:30.674Z,98102.97
2023-01-11T04:12:57.261Z,98094.28
2023-01-11T04:15:23.827Z,98103.88
2023-01-11T04:17:50.335Z,98101.25
2023-01-11T04:20:16.972Z,98091.63
2023-01-11T04:22:43.475Z,98084.59
2023-01-11T04:25:10.246Z,98081.19
2023-01-11T04:27:36.824Z,98080.38
2023-01-11T04:30:04.355Z,98070.75
2023-01-11T04:32:30.869Z,98069.03
2023-01-11T04:34:57.439Z,98068.03
2023-01-11T04:37:23.940Z,98057.59
2023-01-11T04:39:50.495Z,98054.97
2023-01-11T04:42:20.073Z,98059.25
2023-01-11T04:44:51.237Z,98050.53
2023-01-11T04:47:19.529Z,98059.25
2023-01-11T04:49:46.649Z,98069.75
2023-01-11T04:52:14.880Z,98054.00
2023-01-11T04:54:41.549Z,98055.78
2023-01-11T04:57:12.216Z,98058.34
2023-01-11T04:59:38.885Z,98047.19
2023-01-11T05:02:05.567Z,98067.16
2023-01-11T05:04:32.244Z,98050.66
2023-01-11T05:06:58.874Z,98046.22
2023-01-11T05:09:25.534Z,98041.88
2023-01-11T05:11:52.038Z,98037.50
2023-01-11T05:14:18.779Z,98022.78
2023-01-11T05:16:45.482Z,98022.75
2023-01-11T05:19:12.513Z,98027.97
2023-01-11T05:21:44.178Z,98030.63
2023-01-11T05:24:14.712Z,98035.00
2023-01-11T05:26:43.427Z,98027.09
2023-01-11T05:29:12.745Z,98012.31
2023-01-11T05:31:40.907Z,98014.03
2023-01-11T05:34:09.841Z,97996.69
2023-01-11T05:36:39.304Z,97988.88
2023-01-11T05:39:06.447Z,97977.56
2023-01-11T05:41:33.802Z,97982.81
2023-01-11T05:44:18.925Z,97975.88
2023-01-11T05:46:45.641Z,97972.44
2023-01-11T05:49:13.762Z,97967.25
2023-01-11T05:51:41.207Z,97972.50
2023-01-11T05:54:11.239Z,97975.97
2023-01-11T05:56:37.954Z,97967.25
2023-01-11T05:59:04.569Z,97968.97
2023-01-11T06:01:31.516Z,97964.59
2023-01-11T06:03:58.174Z,97951.56
2023-01-11T06:06:24.817Z,97961.09
2023-01-11T06:08:51.462Z,97968.91
2023-01-11T06:11:18.060Z,97968.91
2023-01-11T06:13:44.624Z,97970.56
2023-01-11T06:16:14.915Z,97969.72
2023-01-11T06:18:44.748Z,97978.41
2023-01-11T06:21:12.946Z,97976.63
2023-01-11T06:23:42.017Z,97967.06
2023-01-11T06:26:11.036Z,97975.81
2023-01-11T06:28:38.238Z,97981.91
2023-01-11T06:31:05.966Z,97975.78
2023-01-11T06:33:32.995Z,97982.75
2023-01-11T06:36:07.507Z,97972.22
2023-01-11T06:38:35.075Z,97962.56
2023-01-11T06:41:03.703Z,97963.50
2023-01-11T06:43:34.142Z,97961.72
2023-01-11T06:46:00.878Z,97969.44
2023-01-11T06:48:28.202Z,97965.06
2023-01-11T06:50:57.414Z,97964.16
2023-01-11T06:53:27.439Z,97952.91
2023-01-11T06:55:57.649Z,97951.97
2023-01-11T06:58:25.601Z,97951.09
2023-01-11T07:00:54.235Z,97958.91
2023-01-11T07:03:24.208Z,97963.38
2023-01-11T07:05:52.570Z,97969.28
2023-01-11T07:08:28.420Z,97984.00
2023-01-11T07:10:55.157Z,97960.41
2023-01-11T07:13:24.236Z,97952.56
2023-01-11T07:15:52.351Z,97957.53
2023-01-11T07:18:19.787Z,97947.09
2023-01-11T07:20:46.825Z,97939.09
2023-01-11T07:23:13.708Z,97942.72
2023-01-11T07:25:42.607Z,97933.06
2023-01-11T07:28:09.807Z,97919.22
2023-01-11T07:30:55.384Z,97924.38
2023-01-11T07:33:23.206Z,97914.78
2023-01-11T07:35:49.864Z,97912.91
2023-01-11T07:38:16.523Z,97925.91
2023-01-11T07:40:43.279Z,97938.13
2023-01-11T07:43:14.836Z,97938.00
2023-01-11T07:45:46.223Z,97937.03
2023-01-11T07:48:15.606Z,97934.41
2023-01-11T07:50:45.032Z,97934.34
2023-01-11T07:53:13.373Z,97944.03
2023-01-11T07:55:43.816Z,97944.69
2023-01-11T07:58:12.418Z,97944.75
2023-01-11T08:00:41.276Z,97932.34
2023-01-11T08:03:08.321Z,97934.06
2023-01-11T08:05:35.571Z,97938.44
2023-01-11T08:08:03.163Z,97942.78
2023-01-11T08:10:29.899Z,97945.16
2023-01-11T08:13:15.281Z,97946.06
2023-01-11T08:15:43.695Z,97946.03
2023-01-11T08:18:12.138Z,97948.50
2023-01-11T08:20:39.724Z,97938.84
2023-01-11T08:23:08.846Z,97946.53
2023-01-11T08:25:35.907Z,97945.66
2023-01-11T08:28:07.942Z,97948.09
2023-01-11T08:30:35.994Z,97942.06
2023-01-11T08:33:03.014Z,97943.69
2023-01-11T08:35:30.791Z,97938.47
2023-01-11T08:37:57.390Z,97932.16
2023-01-11T08:40:28.546Z,97937.41
2023-01-11T08:42:58.304Z,97938.97
2023-01-11T08:45:25.535Z,97934.66
2023-01-11T08:47:52.551Z,97949.31
2023-01-11T08:50:21.972Z,97942.41
2023-01-11T08:52:53.279Z,97933.63
2023-01-11T08:55:20.141Z,97948.41
2023-01-11T08:57:46.708Z,97937.19
2023-01-11T09:00:13.884Z,97948.56
2023-01-11T09:02:40.533Z,97949.25
2023-01-11T09:05:07.484Z,97940.56
2023-01-11T09:07:34.396Z,97946.50
2023-01-11T09:10:04.597Z,97946.50
2023-01-11T09:12:32.800Z,97948.25
2023-01-11T09:14:59.644Z,97933.25
2023-01-11T09:17:26.330Z,97936.03
2023-01-11T09:19:52.875Z,97938.00
2023-01-11T09:22:26.495Z,97936.97
2023-01-11T09:24:53.171Z,97940.56
2023-01-11T09:27:19.913Z,97957.25
2023-01-11T09:29:46.548Z,97955.50
2023-01-11T09:32:13.168Z,97945.09
2023-01-11T09:34:42.648Z,97949.41
2023-01-11T09:37:09.381Z,97943.19
2023-01-11T09:39:36.007Z,97949.25
2023-01-11T09:42:14.361Z,97939.63
2023-01-11T09:45:02.632Z,97937.16
2023-01-11T09:47:43.456Z,97940.69
2023-01-11T09:50:18.851Z,97932.06
2023-01-11T09:52:51.350Z,97933.78
2023-01-11T09:55:25.300Z,97933.72
2023-01-11T09:58:23.012Z,97929.50
2023-01-11T10:00:52.465Z,97932.25
2023-01-11T10:03:40.712Z,97938.19
2023-01-11T10:06:17.621Z,97932.91
2023-01-11T10:18:33.080Z,97926.63
2023-01-11T10:18:41.722Z,97927.69
2023-01-11T10:21:13.439Z,97929.25
2023-01-11T10:23:53.710Z,97929.28
2023-01-11T10:26:37.381Z,97929.25
2023-01-11T10:29:21.385Z,97926.50
2023-01-11T10:32:06.304Z,97923.91
2023-01-11T10:34:58.395Z,97923.81
2023-01-11T10:37:31.068Z,97915.97
2023-01-11T10:40:28.820Z,97926.16
2023-01-11T10:43:08.473Z,97926.97
2023-01-11T10:45:43.369Z,97905.09
2023-01-11T10:48:23.106Z,97905.84
2023-01-11T10:51:15.093Z,97912.88
2023-01-11T10:54:14.791Z,97920.56
2023-01-11T10:57:04.799Z,97924.84
2023-01-11T10:59:51.915Z,97924.75
2023-01-11T11:02:43.306Z,97926.50
2023-01-11T11:05:23.272Z,97921.25
2023-01-11T11:08:13.719Z,97927.28
2023-01-11T11:11:05.832Z,97928.16
2023-01-11T11:14:10.191Z,97916.66
2023-01-11T11:16:50.684Z,97907.94
2023-01-11T11:19:25.417Z,97910.63
2023-01-11T11:22:02.411Z,97903.75
2023-01-11T11:24:37.250Z,97903.69
2023-01-11T11:27:20.205Z,97904.63
2023-01-11T11:29:53.079Z,97902.97
2023-01-11T11:32:38.380Z,97903.72
2023-01-11T11:35:08.244Z,97901.06
2023-01-11T11:37:40.982Z,97901.97
2023-01-11T11:40:28.996Z,97903.00
2023-01-11T11:43:29.707Z,97903.81
2023-01-11T11:45:59.107Z,97907.41
2023-01-11T11:48:29.368Z,97908.91
2023-01-11T11:50:59.264Z,97908.97
2023-01-11T11:53:46.753Z,97903.81
2023-01-11T11:56:52.881Z,97905.50
2023-01-11T11:59:22.129Z,97903.03
2023-01-11T12:02:04.713Z,97903.81
2023-01-11T12:04:49.702Z,97903.59
2023-01-11T12:07:24.777Z,97899.31
2023-01-11T12:10:05.875Z,97894.06
2023-01-11T12:12:36.953Z,97898.38
2023-01-11T12:15:15.759Z,97899.00
2023-01-11T12:17:42.962Z,97892.19
2023-01-11T12:20:21.779Z,97890.34
2023-01-11T12:23:12.734Z,97885.97
2023-01-11T12:26:17.360Z,97897.34
2023-01-11T12:29:18.594Z,97898.22
2023-01-11T12:32:23.492Z,97893.09
2023-01-11T12:35:14.774Z,97898.09
2023-01-11T12:37:53.684Z,97894.50
2023-01-11T12:40:23.116Z,97892.59
2023-01-11T12:43:02.677Z,97886.50
2023-01-11T12:46:01.469Z,97881.34
2023-01-11T12:48:42.329Z,97873.34
2023-01-11T12:51:26.294Z,97876.13
2023-01-11T12:54:17.941Z,97870.03
2023-01-11T12:57:23.347Z,97869.81
2023-01-11T13:00:01.574Z,97873.22
2023-01-11T13:02:56.302Z,97880.25
2023-01-11T13:05:49.968Z,97878.34
2023-01-11T13:08:31.177Z,97892.13
2023-01-11T13:11:35.352Z,97888.44
2023-01-11T13:14:22.390Z,97893.06
2023-01-11T13:17:01.181Z,97885.78
2023-01-11T13:19:41.781Z,97889.06
2023-01-11T13:22:16.323Z,97891.69
2023-01-11T13:24:46.373Z,97896.22
2023-01-11T13:27:19.047Z,97895.19
2023-01-11T13:29:52.208Z,97896.06
2023-01-11T13:32:23.517Z,97895.19
2023-01-11T13:35:03.906Z,97902.22
2023-01-11T13:37:55.153Z,97903.91
2023-01-11T13:40:26.172Z,97904.78
2023-01-11T13:43:20.353Z,97908.06
2023-01-11T13:45:54.064Z,97902.94
2023-01-11T13:48:31.806Z,97905.44
2023-01-11T13:51:13.458Z,97900.34
2023-01-11T13:54:08.187Z,97907.97
2023-01-11T13:56:41.416Z,97907.00
2023-01-11T13:59:36.141Z,97906.22
2023-01-11T14:02:23.399Z,97905.34
2023-01-11T14:05:03.485Z,97913.16
2023-01-11T14:08:07.450Z,97902.53
2023-01-11T14:10:40.023Z,97906.31
2023-01-11T14:13:41.783Z,97918.53
2023-01-11T14:16:32.539Z,97929.13
2023-01-11T14:19:18.161Z,97934.38
2023-01-11T14:22:27.135Z,97944.22
2023-01-11T14:25:06.118Z,97947.88
2023-01-11T14:28:10.536Z,97949.69
2023-01-11T14:30:59.674Z,97949.53
2023-01-11T14:33:54.341Z,97949.53
2023-01-11T14:36:36.357Z,97946.03
2023-01-11T14:39:14.655Z,97941.75
2023-01-11T14:41:53.238Z,97955.88
2023-01-11T14:44:42.226Z,97961.88
2023-01-11T14:47:26.095Z,97963.50
2023-01-11T14:50:28.176Z,97966.31
2023-01-11T14:52:59.362Z,97968.03
2023-01-11T14:55:29.434Z,97960.06
2023-01-11T14:57:55.964Z,97978.47
2023-01-11T15:00:24.765Z,97985.41
2023-01-11T15:03:01.368Z,97995.16
2023-01-11T15:05:33.780Z,98007.38
2023-01-11T15:08:15.455Z,98004.81
2023-01-11T15:11:00.603Z,98007.41
2023-01-11T15:13:33.709Z,98005.81
2023-01-11T15:16:28.330Z,98000.63
2023-01-11T15:18:55.591Z,98005.25
2023-01-11T15:21:26.133Z,98003.50
2023-01-11T15:23:59.838Z,98014.78
2023-01-11T15:26:27.080Z,98013.03
2023-01-11T15:29:00.226Z,98018.13
2023-01-11T15:31:46.864Z,98017.41
2023-01-11T15:34:22.680Z,98021.53
2023-01-11T15:37:14.382Z,98005.63
2023-01-11T15:39:57.863Z,98016.28
2023-01-11T15:42:27.128Z,98028.53
2023-01-11T15:45:25.024Z,98029.22
2023-01-11T15:48:30.111Z,98032.91
2023-01-11T15:51:13.537Z,98038.25
2023-01-11T15:54:03.253Z,98035.00
2023-01-11T15:57:03.551Z,98040.16
2023-01-11T16:00:07.855Z,98054.97
2023-01-11T16:02:37.353Z,98049.94
2023-01-11T16:05:18.581Z,98062.16
2023-01-11T16:08:00.198Z,98064.03
2023-01-11T16:10:45.994Z,98080.66
2023-01-11T16:13:37.442Z,98079.78
2023-01-11T16:16:22.940Z,98090.44
2023-01-11T16:19:20.695Z,98100.78
2023-01-11T16:21:59.500Z,98100.88
2023-01-11T16:24:29.619Z,98095.75
2023-01-11T16:27:01.161Z,98097.41
2023-01-11T16:29:34.405Z,98115.25
2023-01-11T16:32:04.705Z,98115.47
2023-01-11T16:34:41.190Z,98120.66
2023-01-11T16:37:29.774Z,98125.94
2023-01-11T16:40:08.722Z,98132.19
2023-01-11T16:42:53.865Z,98133.13
2023-01-11T16:45:23.534Z,98131.50
2023-01-11T16:48:06.511Z,98135.75
2023-01-11T16:50:35.271Z,98133.03
2023-01-11T16:53:07.624Z,98131.31
2023-01-11T16:55:44.231Z,98135.81
2023-01-11T16:58:30.098Z,98140.16
2023-01-11T17:01:09.000Z,98147.25
2023-01-11T17:03:38.488Z,98147.09
2023-01-11T17:06:08.076Z,98145.53
2023-01-11T17:08:35.721Z,98154.34
2023-01-11T17:11:14.361Z,98155.09
2023-01-11T17:14:02.222Z,98164.59
2023-01-11T17:16:37.324Z,98161.91
2023-01-11T17:19:15.248Z,98172.28
2023-01-11T17:21:59.898Z,98178.25
2023-01-11T17:24:27.789Z,98172.31
2023-01-11T17:26:59.116Z,98178.41
2023-01-11T17:29:32.817Z,98186.97
2023-01-11T17:32:03.045Z,98196.84
2023-01-11T17:34:35.178Z,98196.91
2023-01-11T17:37:10.479Z,98194.19
2023-01-11T17:39:44.050Z,98198.72
2023-01-11T17:42:32.455Z,98197.75
2023-01-11T17:45:13.897Z,98193.47
2023-01-11T17:47:43.442Z,98199.44
2023-01-11T17:50:31.073Z,98220.38
2023-01-11T17:53:17.042Z,98211.03
2023-01-11T17:55:54.450Z,98221.63
2023-01-11T17:58:26.498Z,98224.34
2023-01-11T18:01:08.579Z,98235.63
2023-01-11T18:03:45.843Z,98226.06
2023-01-11T18:06:41.876Z,98231.38
2023-01-11T18:09:22.309Z,98225.16
2023-01-11T18:11:50.733Z,98232.97
2023-01-11T18:14:33.237Z,98245.19
2023-01-11T18:17:26.148Z,98238.19
2023-01-11T18:19:53.201Z,98235.69
2023-01-11T18:22:27.212Z,98257.44
2023-01-11T18:24:55.279Z,98255.66
2023-01-11T18:27:35.803Z,98263.66
2023-01-11T18:30:06.450Z,98261.00
2023-01-11T18:32:39.007Z,98269.03
2023-01-11T18:35:16.919Z,98256.84
2023-01-11T18:37:45.096Z,98268.22
2023-01-11T18:40:16.859Z,98268.22
2023-01-11T18:42:47.334Z,98270.94
2023-01-11T18:45:14.685Z,98276.13
2023-01-11T18:47:41.639Z,98276.06
2023-01-11T18:50:14.214Z,98285.75
2023-01-11T18:52:41.125Z,98289.25
2023-01-11T18:55:11.711Z,98285.84
2023-01-11T18:57:38.240Z,98284.97
2023-01-11T19:00:05.233Z,98278.03
2023-01-11T19:02:42.475Z,98281.41
2023-01-11T19:05:14.925Z,98279.75
2023-01-11T19:07:45.159Z,98278.09
2023-01-11T19:10:18.411Z,98282.38
2023-01-11T19:12:45.248Z,98273.91
2023-01-11T19:15:13.034Z,98276.41
2023-01-11T19:17:42.819Z,98285.13
2023-01-11T19:20:13.205Z,98287.88
2023-01-11T19:22:40.112Z,98295.69
2023-01-11T19:25:09.526Z,98286.84
2023-01-11T19:27:39.505Z,98289.53
2023-01-11T19:30:06.741Z,98299.19
2023-01-11T19:32:33.398Z,98294.88
2023-01-11T19:35:00.216Z,98295.66
2023-01-11T19:37:28.021Z,98299.16
2023-01-11T19:39:54.571Z,98285.97
2023-01-11T19:42:22.229Z,98294.72
2023-01-11T19:44:48.880Z,98291.19
2023-01-11T19:47:15.997Z,98296.41
2023-01-11T19:49:43.449Z,98292.94
2023-01-11T19:52:13.548Z,98296.47
2023-01-11T19:54:43.767Z,98292.97
2023-01-11T19:57:17.862Z,98293.03
2023-01-11T19:59:44.963Z,98286.84
2023-01-11T20:02:12.882Z,98290.41
2023-01-11T20:04:40.120Z,98293.88
2023-01-11T20:07:08.166Z,98293.78
2023-01-11T20:09:37.657Z,98292.06
2023-01-11T20:12:05.876Z,98309.56
2023-01-11T20:14:34.944Z,98296.50
2023-01-11T20:17:02.474Z,98295.63
2023-01-11T20:19:29.153Z,98299.97
2023-01-11T20:21:56.084Z,98304.28
2023-01-11T20:24:29.689Z,98299.97
2023-01-11T20:26:58.562Z,98305.22
2023-01-11T20:29:25.153Z,98307.75
2023-01-11T20:31:51.973Z,98315.66
2023-01-11T20:34:18.822Z,98310.41
2023-01-11T20:36:45.720Z,98306.06
2023-01-11T20:39:12.833Z,98287.69
2023-01-11T20:41:51.651Z,98282.53
2023-01-11T20:44:23.926Z,98279.91
2023-01-11T20:46:52.075Z,98284.22
2023-01-11T20:49:23.296Z,98285.03
2023-01-11T20:51:50.313Z,98281.59
2023-01-11T20:54:17.169Z,98280.75
2023-01-11T20:56:46.514Z,98277.38
2023-01-11T20:59:20.799Z,98270.31
2023-01-11T21:01:48.832Z,98261.69
2023-01-11T21:04:17.312Z,98261.63
2023-01-11T21:06:46.476Z,98258.13
2023-01-11T21:09:15.320Z,98265.03
2023-01-11T21:11:42.308Z,98264.19
2023-01-11T21:14:12.255Z,98271.91
2023-01-11T21:16:44.298Z,98276.28
2023-01-11T21:19:12.653Z,98274.63
2023-01-11T21:21:39.341Z,98265.06
2023-01-11T21:24:06.383Z,98272.03
2023-01-11T21:26:34.657Z,98269.44
2023-01-11T21:29:03.992Z,98274.72
2023-01-11T21:31:33.770Z,98278.16
2023-01-11T21:34:01.097Z,98280.88
2023-01-11T21:36:29.466Z,98277.41
2023-01-11T21:38:57.522Z,98287.81
2023-01-11T21:41:45.130Z,98287.00
2023-01-11T21:44:16.293Z,98303.53
2023-01-11T21:46:43.707Z,98300.97
2023-01-11T21:49:11.621Z,98308.03
2023-01-11T21:51:38.591Z,98304.59
2023-01-11T21:54:08.490Z,98300.22
2023-01-11T21:56:35.577Z,98288.88
2023-01-11T21:59:06.624Z,98288.75
2023-01-11T22:01:33.584Z,98282.75
2023-01-11T22:04:05.206Z,98287.03
2023-01-11T22:06:31.850Z,98285.28
2023-01-11T22:08:58.528Z,98284.31
2023-01-11T22:11:27.663Z,98293.19
2023-01-11T22:13:56.350Z,98277.41
2023-01-11T22:16:22.971Z,98275.69
2023-01-11T22:18:49.529Z,98280.91
2023-01-11T22:21:18.628Z,98282.75
2023-01-11T22:23:47.787Z,98289.63
2023-01-11T22:26:16.814Z,98280.97
2023-01-11T22:29:03.141Z,98288.97
2023-01-11T22:31:31.137Z,98284.63
2023-01-11T22:33:58.666Z,98290.69
2023-01-11T22:36:26.647Z,98282.84
2023-01-11T22:38:53.665Z,98294.16
2023-01-11T22:41:45.888Z,98292.50
2023-01-11T22:44:20.886Z,98279.34
2023-01-11T22:46:58.515Z,98283.63
2023-01-11T22:49:25.730Z,98281.03
2023-01-11T22:51:52.334Z,98278.56
2023-01-11T22:54:26.665Z,98273.28
2023-01-11T22:56:53.647Z,98275.00
2023-01-11T22:59:20.865Z,98284.50
2023-01-11T23:01:47.427Z,98281.06
2023-01-11T23:04:14.545Z,98293.34
2023-01-11T23:06:42.117Z,98282.00
2023-01-11T23:09:15.481Z,98282.03
2023-01-11T23:12:01.784Z,98281.06
2023-01-11T23:14:30.469Z,98278.44
2023-01-11T23:17:05.217Z,98268.81
2023-01-11T23:19:32.363Z,98276.63
2023-01-11T23:21:59.015Z,98267.09
2023-01-11T23:24:25.872Z,98267.03
2023-01-11T23:26:57.553Z,98281.88
2023-01-11T23:29:24.699Z,98287.09
2023-01-11T23:31:51.462Z,98278.31
2023-01-11T23:34:18.419Z,98279.13
2023-01-11T23:36:48.681Z,98288.66
2023-01-11T23:39:22.187Z,98298.16
2023-01-11T23:42:07.787Z,98282.47
2023-01-11T23:44:36.859Z,98295.38
2023-01-11T23:47:22.386Z,98292.75
2023-01-11T23:49:51.450Z,98288.28
2023-01-11T23:52:20.482Z,98288.22
2023-01-11T23:54:49.856Z,98286.56
2023-01-11T23:57:18.840Z,98289.13
2023-01-11T23:59:46.603Z,98290.84
